createdAt,value
2017-12-13T00:01:02.575Z,99.99
2017-12-13T00:02:17.005Z,99.99
2017-12-13T00:03:37.073Z,99.99
2017-12-13T00:04:51.557Z,99.99
2017-12-13T00:06:05.976Z,99.99
2017-12-13T00:07:19.590Z,99.99
2017-12-13T00:08:33.520Z,99.99
2017-12-13T00:09:47.077Z,99.99
2017-12-13T00:11:00.685Z,99.99
2017-12-13T00:12:14.143Z,99.99
2017-12-13T00:13:28.150Z,99.99
2017-12-13T00:14:42.404Z,99.99
2017-12-13T00:15:57.140Z,99.99
2017-12-13T00:17:10.755Z,99.99
2017-12-13T00:18:24.363Z,99.99
2017-12-13T00:19:39.568Z,99.99
2017-12-13T00:20:55.382Z,99.99
2017-12-13T00:22:09.414Z,99.99
2017-12-13T00:23:23.919Z,99.99
2017-12-13T00:24:38.542Z,99.99
2017-12-13T00:25:52.459Z,99.99
2017-12-13T00:27:06.212Z,99.99
2017-12-13T00:28:20.211Z,99.99
2017-12-13T00:29:33.773Z,99.99
2017-12-13T00:30:47.214Z,99.99
2017-12-13T00:32:02.442Z,99.99
2017-12-13T00:33:16.245Z,99.99
2017-12-13T00:34:29.858Z,99.99
2017-12-13T00:35:43.365Z,99.99
2017-12-13T00:36:57.257Z,99.99
2017-12-13T00:38:11.614Z,99.99
2017-12-13T00:39:25.514Z,99.99
2017-12-13T00:40:39.044Z,99.99
2017-12-13T00:41:53.221Z,99.99
2017-12-13T00:43:06.694Z,99.99
2017-12-13T00:44:20.140Z,99.99
2017-12-13T00:45:34.146Z,99.99
2017-12-13T00:46:47.620Z,99.99
2017-12-13T00:48:01.097Z,99.99
2017-12-13T00:49:14.565Z,99.99
2017-12-13T00:50:28.027Z,99.99
2017-12-13T00:51:42.006Z,99.99
2017-12-13T00:52:55.544Z,99.99
2017-12-13T00:54:09.117Z,99.99
2017-12-13T00:55:22.859Z,99.99
2017-12-13T00:56:36.410Z,99.99
2017-12-13T00:57:50.180Z,99.99
2017-12-13T00:59:04.041Z,99.99
2017-12-13T01:00:17.520Z,99.99
2017-12-13T01:01:31.020Z,99.99
2017-12-13T01:02:44.798Z,99.99
2017-12-13T01:03:58.652Z,99.99
2017-12-13T01:05:12.410Z,99.99
2017-12-13T01:06:26.867Z,99.99
2017-12-13T01:07:40.976Z,99.99
2017-12-13T01:08:54.987Z,99.99
2017-12-13T01:10:09.384Z,99.99
2017-12-13T01:11:23.215Z,99.99
2017-12-13T01:12:36.731Z,99.99
2017-12-13T01:13:50.472Z,99.99
2017-12-13T01:15:04.247Z,99.99
2017-12-13T01:16:18.076Z,99.99
2017-12-13T01:17:31.552Z,99.99
2017-12-13T01:18:45.239Z,99.99
2017-12-13T01:19:59.128Z,99.99
2017-12-13T01:21:12.855Z,99.99
2017-12-13T01:22:26.751Z,99.99
2017-12-13T01:23:40.542Z,99.99
2017-12-13T01:24:53.998Z,99.99
2017-12-13T01:26:07.466Z,99.99
2017-12-13T01:27:21.101Z,99.99
2017-12-13T01:28:34.902Z,99.99
2017-12-13T01:29:48.797Z,99.99
2017-12-13T01:31:02.671Z,99.99
2017-12-13T01:32:16.602Z,99.99
2017-12-13T01:36:30.097Z,99.99
2017-12-13T01:37:44.187Z,99.99
2017-12-13T01:38:57.637Z,99.99
2017-12-13T01:40:11.400Z,99.99
2017-12-13T01:41:24.964Z,99.99
2017-12-13T01:42:38.937Z,99.99
2017-12-13T01:43:53.680Z,99.99
2017-12-13T01:45:07.764Z,99.99
2017-12-13T01:47:49.621Z,99.99
2017-12-13T01:49:03.640Z,99.99
2017-12-13T01:50:17.324Z,99.99
2017-12-13T01:51:31.004Z,99.99
2017-12-13T01:52:44.904Z,99.99
2017-12-13T01:53:58.811Z,99.99
2017-12-13T01:55:12.963Z,99.99
2017-12-13T01:56:26.458Z,99.99
2017-12-13T01:57:40.517Z,99.99
2017-12-13T01:58:54.519Z,99.99
2017-12-13T02:00:08.190Z,99.99
2017-12-13T02:01:22.275Z,99.99
2017-12-13T02:02:36.243Z,99.99
2017-12-13T02:03:49.935Z,99.99
2017-12-13T02:05:03.673Z,99.99
2017-12-13T02:06:18.650Z,99.99
2017-12-13T02:07:32.777Z,99.99
2017-12-13T02:08:46.876Z,99.99
2017-12-13T02:10:00.536Z,99.99
2017-12-13T02:11:13.962Z,99.99
2017-12-13T02:12:27.590Z,99.99
2017-12-13T02:13:42.518Z,99.99
2017-12-13T02:14:56.690Z,99.99
2017-12-13T02:16:10.311Z,99.99
2017-12-13T02:17:24.209Z,99.99
2017-12-13T02:18:38.133Z,99.99
2017-12-13T02:19:52.248Z,99.99
2017-12-13T02:21:05.818Z,99.99
2017-12-13T02:22:19.633Z,99.99
2017-12-13T02:23:33.172Z,99.99
2017-12-13T02:24:47.194Z,99.99
2017-12-13T02:26:01.863Z,99.99
2017-12-13T02:27:15.378Z,99.99
2017-12-13T02:28:29.435Z,99.99
2017-12-13T02:29:43.317Z,99.99
2017-12-13T02:30:56.995Z,99.99
2017-12-13T02:32:10.978Z,99.99
2017-12-13T02:33:26.604Z,99.99
2017-12-13T02:34:43.874Z,99.99
2017-12-13T02:35:58.401Z,99.99
2017-12-13T02:37:14.845Z,99.99
2017-12-13T02:38:29.042Z,99.99
2017-12-13T02:39:43.395Z,99.99
2017-12-13T02:40:56.958Z,99.99
2017-12-13T02:42:10.688Z,99.99
2017-12-13T02:43:24.142Z,99.99
2017-12-13T02:44:38.357Z,99.99
2017-12-13T02:45:52.685Z,99.99
2017-12-13T02:47:07.853Z,99.99
2017-12-13T02:48:22.310Z,99.99
2017-12-13T02:49:35.983Z,99.99
2017-12-13T02:50:50.217Z,99.99
2017-12-13T02:52:04.180Z,99.99
2017-12-13T02:53:18.132Z,99.99
2017-12-13T02:54:32.072Z,99.99
2017-12-13T02:55:45.823Z,99.99
2017-12-13T02:57:00.021Z,99.99
2017-12-13T02:58:13.993Z,99.99
2017-12-13T02:59:27.768Z,99.99
2017-12-13T03:00:41.551Z,99.99
2017-12-13T03:01:55.329Z,99.99
2017-12-13T03:03:09.209Z,99.99
2017-12-13T03:04:22.926Z,99.99
2017-12-13T03:05:36.651Z,99.99
2017-12-13T03:06:50.686Z,99.99
2017-12-13T03:08:04.141Z,99.99
2017-12-13T03:09:17.940Z,99.99
2017-12-13T03:10:31.809Z,99.99
2017-12-13T03:11:45.360Z,99.99
2017-12-13T03:12:58.827Z,99.99
2017-12-13T03:14:12.309Z,99.99
2017-12-13T03:15:26.577Z,99.99
2017-12-13T03:16:40.115Z,99.99
2017-12-13T03:17:53.682Z,99.99
2017-12-13T03:19:07.133Z,99.99
2017-12-13T03:20:20.570Z,99.99
2017-12-13T03:21:34.338Z,99.99
2017-12-13T03:22:47.999Z,99.99
2017-12-13T03:24:01.455Z,99.99
2017-12-13T03:25:14.899Z,99.99
2017-12-13T03:26:28.606Z,99.99
2017-12-13T03:27:42.373Z,99.99
2017-12-13T03:28:55.850Z,99.99
2017-12-13T03:30:09.806Z,99.99
2017-12-13T03:31:23.593Z,99.99
2017-12-13T03:32:37.035Z,99.99
2017-12-13T03:33:50.783Z,99.99
2017-12-13T03:35:04.229Z,99.99
2017-12-13T03:36:17.690Z,99.99
2017-12-13T03:37:31.576Z,99.99
2017-12-13T03:38:45.033Z,99.99
2017-12-13T03:39:58.816Z,99.99
2017-12-13T03:41:12.330Z,99.99
2017-12-13T03:42:26.008Z,99.99
2017-12-13T03:43:39.484Z,99.99
2017-12-13T03:44:52.969Z,99.99
2017-12-13T03:46:06.983Z,99.99
2017-12-13T03:47:20.424Z,99.99
2017-12-13T03:48:34.174Z,99.99
2017-12-13T03:49:47.638Z,99.99
2017-12-13T03:51:01.109Z,99.99
2017-12-13T03:52:14.860Z,99.99
2017-12-13T03:53:28.552Z,99.99
2017-12-13T03:54:41.976Z,99.99
2017-12-13T03:55:55.458Z,99.99
2017-12-13T03:57:08.978Z,99.99
2017-12-13T03:58:22.733Z,99.99
2017-12-13T03:59:36.205Z,99.99
2017-12-13T04:00:49.949Z,99.99
2017-12-13T04:02:03.446Z,99.99
2017-12-13T04:03:17.042Z,99.99
2017-12-13T04:04:30.783Z,99.99
2017-12-13T04:05:44.276Z,99.99
2017-12-13T04:06:57.784Z,99.99
2017-12-13T04:08:11.234Z,99.99
2017-12-13T04:09:24.724Z,99.99
2017-12-13T04:10:39.078Z,99.99
2017-12-13T04:11:53.034Z,99.99
2017-12-13T04:13:07.294Z,99.99
2017-12-13T04:14:21.719Z,99.99
2017-12-13T04:15:35.154Z,99.99
2017-12-13T04:16:48.925Z,99.99
2017-12-13T04:18:02.485Z,99.99
2017-12-13T04:19:16.016Z,99.99
2017-12-13T04:20:29.502Z,99.99
2017-12-13T04:21:42.982Z,99.99
2017-12-13T04:22:56.752Z,99.99
2017-12-13T04:24:10.210Z,99.99
2017-12-13T04:25:23.684Z,99.99
2017-12-13T04:26:37.210Z,99.99
2017-12-13T04:27:50.752Z,99.99
2017-12-13T04:29:04.611Z,99.99
2017-12-13T04:30:18.187Z,99.99
2017-12-13T04:31:31.975Z,99.99
2017-12-13T04:32:45.508Z,99.99
2017-12-13T04:33:59.096Z,99.99
2017-12-13T04:35:12.863Z,99.99
2017-12-13T04:36:26.345Z,99.99
2017-12-13T04:37:39.811Z,99.99
2017-12-13T04:38:53.607Z,99.99
2017-12-13T04:40:07.070Z,99.99
2017-12-13T04:41:20.973Z,99.99
2017-12-13T04:42:34.421Z,99.99
2017-12-13T04:43:47.904Z,99.99
2017-12-13T04:45:01.770Z,99.99
2017-12-13T04:46:15.340Z,99.99
2017-12-13T04:47:29.374Z,99.99
2017-12-13T04:48:42.890Z,99.99
2017-12-13T04:49:56.391Z,99.99
2017-12-13T04:51:09.966Z,99.99
2017-12-13T04:52:23.492Z,99.99
2017-12-13T04:53:37.937Z,99.99
2017-12-13T04:54:51.423Z,99.99
2017-12-13T04:56:04.898Z,99.99
2017-12-13T04:57:18.347Z,99.99
2017-12-13T04:58:32.169Z,99.99
2017-12-13T04:59:46.065Z,99.99
2017-12-13T05:00:59.649Z,99.99
2017-12-13T05:02:13.145Z,99.99
2017-12-13T05:03:26.675Z,99.99
2017-12-13T05:04:40.271Z,99.99
2017-12-13T05:05:54.325Z,99.99
2017-12-13T05:07:07.850Z,99.99
2017-12-13T05:08:21.400Z,99.99
2017-12-13T05:09:34.950Z,99.99
2017-12-13T05:10:48.452Z,99.99
2017-12-13T05:12:02.300Z,99.99
2017-12-13T05:13:16.068Z,99.99
2017-12-13T05:14:29.563Z,99.99
2017-12-13T05:15:43.132Z,99.99
2017-12-13T05:16:56.630Z,99.99
2017-12-13T05:18:10.481Z,99.99
2017-12-13T05:19:24.505Z,99.99
2017-12-13T05:20:38.065Z,99.99
2017-12-13T05:21:51.561Z,99.99
2017-12-13T05:23:05.523Z,99.99
2017-12-13T05:24:19.350Z,99.99
2017-12-13T05:25:33.105Z,99.99
2017-12-13T05:26:46.942Z,99.99
2017-12-13T05:28:00.948Z,99.99
2017-12-13T05:29:14.491Z,99.99
2017-12-13T05:30:28.351Z,99.99
2017-12-13T05:31:41.880Z,99.99
2017-12-13T05:32:56.096Z,99.99
2017-12-13T05:34:10.034Z,99.99
2017-12-13T05:35:23.961Z,99.99
2017-12-13T05:36:38.108Z,99.99
2017-12-13T05:37:52.325Z,99.99
2017-12-13T05:39:06.096Z,99.99
2017-12-13T05:40:58.294Z,99.99
2017-12-13T05:42:12.277Z,99.99
2017-12-13T05:43:25.821Z,99.99
2017-12-13T05:44:40.188Z,99.99
2017-12-13T05:45:54.304Z,99.99
2017-12-13T05:47:07.932Z,99.99
2017-12-13T05:48:21.716Z,99.99
2017-12-13T05:49:35.390Z,99.99
2017-12-13T05:50:48.898Z,99.99
2017-12-13T05:52:02.749Z,99.99
2017-12-13T05:53:16.510Z,99.99
2017-12-13T05:54:30.263Z,99.99
2017-12-13T05:55:43.776Z,99.99
2017-12-13T05:56:57.293Z,99.99
2017-12-13T05:58:11.331Z,99.99
2017-12-13T05:59:25.233Z,99.99
2017-12-13T06:00:39.062Z,99.99
2017-12-13T06:01:53.511Z,99.99
2017-12-13T06:03:07.646Z,99.99
2017-12-13T06:04:21.209Z,99.99
2017-12-13T06:05:35.300Z,99.99
2017-12-13T06:06:49.300Z,99.99
2017-12-13T06:08:02.782Z,99.99
2017-12-13T06:09:16.732Z,99.99
2017-12-13T06:10:30.577Z,99.99
2017-12-13T06:11:44.027Z,99.99
2017-12-13T06:12:57.780Z,99.99
2017-12-13T06:14:12.249Z,99.99
2017-12-13T06:15:25.695Z,99.99
2017-12-13T06:16:39.196Z,99.99
2017-12-13T06:17:53.210Z,99.99
2017-12-13T06:19:06.992Z,99.99
2017-12-13T06:20:20.474Z,99.99
2017-12-13T06:21:33.978Z,99.99
2017-12-13T06:22:47.940Z,99.99
2017-12-13T06:24:02.259Z,99.99
2017-12-13T06:25:16.967Z,99.99
2017-12-13T06:26:30.945Z,99.99
2017-12-13T06:27:44.986Z,99.99
2017-12-13T06:28:58.434Z,99.99
2017-12-13T06:30:12.216Z,99.99
2017-12-13T06:31:25.971Z,99.99
2017-12-13T06:32:39.507Z,99.99
2017-12-13T06:33:53.016Z,99.99
2017-12-13T06:35:06.963Z,99.99
2017-12-13T06:36:20.884Z,99.99
2017-12-13T06:37:35.268Z,99.99
2017-12-13T06:38:48.742Z,99.99
2017-12-13T06:40:02.528Z,99.99
2017-12-13T06:41:16.814Z,99.99
2017-12-13T06:42:30.890Z,99.99
2017-12-13T06:43:45.727Z,99.99
2017-12-13T06:44:59.732Z,99.99
2017-12-13T06:46:13.714Z,99.99
2017-12-13T06:47:28.734Z,99.99
2017-12-13T06:48:43.947Z,99.99
2017-12-13T06:49:57.738Z,99.99
2017-12-13T06:51:11.253Z,99.99
2017-12-13T06:52:25.215Z,99.99
2017-12-13T06:53:38.749Z,99.99
2017-12-13T06:54:52.256Z,99.99
2017-12-13T06:56:06.309Z,99.99
2017-12-13T06:57:20.156Z,99.99
2017-12-13T06:58:33.755Z,99.99
2017-12-13T06:59:47.375Z,99.99
2017-12-13T07:01:00.887Z,99.99
2017-12-13T07:02:14.729Z,99.99
2017-12-13T07:03:29.258Z,99.99
2017-12-13T07:04:43.209Z,99.99
2017-12-13T07:05:57.562Z,99.99
2017-12-13T07:07:11.098Z,99.99
2017-12-13T07:08:25.236Z,99.99
2017-12-13T07:09:38.997Z,99.99
2017-12-13T07:10:52.560Z,99.99
2017-12-13T07:12:07.011Z,99.99
2017-12-13T07:13:20.959Z,99.99
2017-12-13T07:14:34.799Z,99.99
2017-12-13T07:15:48.650Z,99.99
2017-12-13T07:17:02.194Z,99.99
2017-12-13T07:18:15.995Z,99.99
2017-12-13T07:19:29.879Z,99.99
2017-12-13T07:20:43.854Z,99.99
2017-12-13T07:21:57.668Z,99.99
2017-12-13T07:23:12.071Z,99.99
2017-12-13T07:24:27.080Z,99.99
2017-12-13T07:25:40.903Z,99.99
2017-12-13T07:26:54.658Z,99.99
2017-12-13T07:28:09.435Z,99.99
2017-12-13T07:29:23.637Z,99.99
2017-12-13T07:30:37.364Z,99.99
2017-12-13T07:31:51.391Z,99.99
2017-12-13T07:33:05.096Z,99.99
2017-12-13T07:34:18.763Z,99.99
2017-12-13T07:35:32.318Z,99.99
2017-12-13T07:36:45.950Z,99.99
2017-12-13T07:37:59.512Z,99.99
2017-12-13T07:39:13.023Z,99.99
2017-12-13T07:40:27.166Z,99.99
2017-12-13T07:41:40.656Z,99.99
2017-12-13T07:42:54.718Z,99.99
2017-12-13T07:44:08.243Z,99.99
2017-12-13T07:45:22.232Z,99.99
2017-12-13T07:46:36.514Z,99.99
2017-12-13T07:47:50.585Z,99.99
2017-12-13T07:49:05.263Z,99.99
2017-12-13T07:50:20.010Z,99.99
2017-12-13T07:51:33.886Z,99.99
2017-12-13T07:52:48.694Z,99.99
2017-12-13T07:54:02.917Z,99.99
2017-12-13T07:55:17.429Z,99.99
2017-12-13T07:56:31.485Z,99.99
2017-12-13T07:57:45.513Z,99.99
2017-12-13T07:59:01.356Z,99.99
2017-12-13T08:00:15.776Z,99.99
2017-12-13T08:01:29.687Z,99.99
2017-12-13T08:02:43.754Z,99.99
2017-12-13T08:03:57.849Z,99.99
2017-12-13T08:05:11.768Z,99.99
2017-12-13T08:06:27.025Z,99.99
2017-12-13T08:07:41.405Z,99.99
2017-12-13T08:08:55.371Z,99.99
2017-12-13T08:10:13.733Z,99.99
2017-12-13T08:12:43.310Z,99.99
2017-12-13T08:15:04.805Z,99.99
2017-12-13T08:16:19.282Z,99.99
2017-12-13T08:17:32.920Z,99.99
2017-12-13T08:18:46.766Z,99.99
2017-12-13T08:20:00.823Z,99.99
2017-12-13T08:21:19.440Z,99.99
2017-12-13T08:22:43.305Z,99.99
2017-12-13T08:23:57.964Z,99.99
2017-12-13T08:25:12.316Z,99.99
2017-12-13T08:26:26.724Z,99.99
2017-12-13T08:27:40.460Z,99.99
2017-12-13T08:28:54.202Z,99.99
2017-12-13T08:30:07.709Z,99.99
2017-12-13T08:31:21.845Z,99.99
2017-12-13T08:32:35.990Z,99.99
2017-12-13T08:33:50.304Z,99.99
2017-12-13T08:35:04.853Z,99.99
2017-12-13T08:36:21.625Z,99.99
2017-12-13T08:37:35.784Z,99.99
2017-12-13T08:38:50.559Z,99.99
2017-12-13T08:40:05.412Z,99.99
2017-12-13T08:41:19.981Z,99.99
2017-12-13T08:42:35.511Z,99.99
2017-12-13T08:43:48.979Z,99.99
2017-12-13T08:45:02.491Z,99.99
2017-12-13T08:46:18.520Z,99.99
2017-12-13T08:47:32.658Z,99.99
2017-12-13T08:48:46.189Z,99.99
2017-12-13T08:51:05.188Z,99.99
2017-12-13T08:52:20.803Z,99.99
2017-12-13T08:53:36.792Z,99.99
2017-12-13T08:54:50.314Z,99.99
2017-12-13T08:56:04.096Z,99.99
2017-12-13T08:57:17.641Z,99.99
2017-12-13T08:58:31.714Z,99.99
2017-12-13T08:59:45.310Z,99.99
2017-12-13T09:00:59.437Z,99.99
2017-12-13T09:02:13.470Z,99.99
2017-12-13T09:03:26.957Z,99.99
2017-12-13T09:04:40.458Z,99.99
2017-12-13T09:05:53.913Z,99.99
2017-12-13T09:07:07.400Z,99.99
2017-12-13T09:08:22.918Z,99.99
2017-12-13T09:09:36.813Z,99.99
2017-12-13T09:10:51.290Z,99.99
2017-12-13T09:12:05.352Z,99.99
2017-12-13T09:13:20.557Z,99.99
2017-12-13T09:14:34.662Z,99.99
2017-12-13T09:15:48.621Z,99.99
2017-12-13T09:17:02.222Z,99.99
2017-12-13T09:18:16.100Z,99.99
2017-12-13T09:19:30.150Z,99.99
2017-12-13T09:20:43.904Z,99.99
2017-12-13T09:21:58.178Z,99.99
2017-12-13T09:23:12.079Z,99.99
2017-12-13T09:24:25.950Z,99.99
2017-12-13T09:25:39.476Z,99.99
2017-12-13T09:26:53.243Z,99.99
2017-12-13T09:28:06.708Z,99.99
2017-12-13T09:29:20.575Z,99.99
2017-12-13T09:30:34.151Z,99.99
2017-12-13T09:31:47.893Z,99.99
2017-12-13T09:33:01.655Z,99.99
2017-12-13T09:34:15.183Z,99.99
2017-12-13T09:35:29.137Z,99.99
2017-12-13T09:36:42.624Z,99.99
2017-12-13T09:37:56.436Z,99.99
2017-12-13T09:39:10.925Z,99.99
2017-12-13T09:40:24.726Z,99.99
2017-12-13T09:41:38.609Z,99.99
2017-12-13T09:42:52.308Z,99.99
2017-12-13T09:44:05.895Z,99.99
2017-12-13T09:45:19.945Z,99.99
2017-12-13T09:46:33.433Z,99.99
2017-12-13T09:47:46.931Z,99.99
2017-12-13T09:49:00.408Z,99.99
2017-12-13T09:50:14.919Z,99.99
2017-12-13T09:51:29.047Z,99.99
2017-12-13T09:52:43.193Z,99.99
2017-12-13T09:53:57.789Z,99.99
2017-12-13T09:55:11.975Z,99.99
2017-12-13T09:56:26.922Z,99.99
2017-12-13T09:57:40.692Z,99.99
2017-12-13T09:58:54.870Z,99.99
2017-12-13T10:00:08.827Z,99.99
2017-12-13T10:01:22.346Z,99.99
2017-12-13T10:02:35.811Z,99.99
2017-12-13T10:03:50.996Z,99.99
2017-12-13T10:05:05.608Z,99.99
2017-12-13T10:06:22.410Z,99.99
2017-12-13T10:07:36.532Z,99.26
2017-12-13T10:08:51.009Z,97.74
2017-12-13T10:10:05.080Z,97.97
2017-12-13T10:11:18.744Z,98.45
2017-12-13T10:12:32.747Z,98.64
2017-12-13T10:13:46.366Z,99.3
2017-12-13T10:18:33.945Z,98.45
2017-12-13T10:19:47.547Z,98.64
2017-12-13T10:21:01.062Z,99.97
2017-12-13T10:22:15.204Z,99.77
2017-12-13T10:23:29.860Z,99.63
2017-12-13T10:24:43.689Z,99.63
2017-12-13T10:25:57.533Z,99.82
2017-12-13T10:27:11.869Z,99.54
2017-12-13T10:28:25.884Z,99.87
2017-12-13T10:29:39.376Z,99.11
2017-12-13T10:30:53.226Z,99.49
2017-12-13T10:32:06.724Z,99.3
2017-12-13T10:33:20.678Z,98.92
2017-12-13T10:34:34.150Z,99.11
2017-12-13T10:35:47.941Z,98.92
2017-12-13T10:37:01.385Z,99.11
2017-12-13T10:38:16.023Z,99.77
2017-12-13T10:39:29.710Z,99.21
2017-12-13T10:40:43.706Z,98.64
2017-12-13T10:41:57.219Z,98.16
2017-12-13T10:43:11.435Z,97.97
2017-12-13T10:44:24.957Z,97.69
2017-12-13T10:45:38.825Z,98.45
2017-12-13T10:46:52.960Z,97.97
2017-12-13T10:48:07.802Z,98.35
2017-12-13T10:49:22.726Z,98.54
2017-12-13T10:50:36.252Z,98.35
2017-12-13T10:51:50.221Z,99.06
2017-12-13T10:53:03.754Z,98.97
2017-12-13T10:54:17.902Z,99.06
2017-12-13T10:55:32.139Z,98.97
2017-12-13T10:56:45.636Z,99.26
2017-12-13T10:57:59.645Z,99.4
2017-12-13T10:59:13.111Z,98.83
2017-12-13T11:00:26.856Z,98.83
2017-12-13T11:01:40.398Z,98.35
2017-12-13T11:02:54.288Z,98.54
2017-12-13T11:04:08.347Z,98.64
2017-12-13T11:05:22.340Z,98.45
2017-12-13T11:06:36.549Z,98.45
2017-12-13T11:07:50.735Z,98.35
2017-12-13T11:09:04.471Z,98.07
2017-12-13T11:10:18.466Z,98.64
2017-12-13T11:11:31.933Z,98.35
2017-12-13T11:12:45.689Z,99.11
2017-12-13T11:13:59.195Z,99.11
2017-12-13T11:15:12.689Z,99.11
2017-12-13T11:16:27.244Z,98.73
2017-12-13T11:18:33.888Z,98.35
2017-12-13T11:19:47.858Z,98.35
2017-12-13T11:21:01.746Z,99.11
2017-12-13T11:22:16.205Z,98.45
2017-12-13T11:23:29.867Z,98.54
2017-12-13T11:24:46.064Z,98.73
2017-12-13T11:26:00.523Z,99.11
2017-12-13T11:27:15.106Z,98.83
2017-12-13T11:28:29.702Z,98.64
2017-12-13T11:29:44.800Z,99.21
2017-12-13T11:30:59.597Z,99.02
2017-12-13T11:32:14.782Z,99.49
2017-12-13T11:33:28.422Z,99.68
2017-12-13T11:34:42.523Z,99.99
2017-12-13T11:35:57.567Z,99.97
2017-12-13T11:37:11.247Z,99.02
2017-12-13T11:38:25.492Z,99.49
2017-12-13T11:39:38.979Z,99.87
2017-12-13T11:40:52.755Z,99.87
2017-12-13T11:42:06.268Z,99.99
2017-12-13T11:43:20.096Z,99.68
2017-12-13T11:44:35.972Z,99.58
2017-12-13T11:45:49.903Z,99.99
2017-12-13T11:47:05.544Z,99.99
2017-12-13T11:48:19.520Z,99.99
2017-12-13T11:49:35.299Z,99.99
2017-12-13T11:50:49.123Z,99.99
2017-12-13T11:52:03.299Z,99.99
2017-12-13T11:53:17.635Z,99.87
2017-12-13T11:54:31.459Z,99.99
2017-12-13T11:55:45.218Z,99.99
2017-12-13T11:56:58.784Z,99.82
2017-12-13T11:58:12.269Z,99.97
2017-12-13T11:59:27.126Z,99.73
2017-12-13T12:00:41.596Z,99.68
2017-12-13T12:01:55.184Z,99.77
2017-12-13T12:03:08.714Z,99.49
2017-12-13T12:04:23.272Z,99.99
2017-12-13T12:05:37.164Z,99.99
2017-12-13T12:06:51.447Z,99.99
2017-12-13T12:08:04.990Z,99.99
2017-12-13T12:09:18.757Z,99.99
2017-12-13T12:10:33.368Z,99.99
2017-12-13T12:11:47.163Z,99.99
2017-12-13T12:13:02.002Z,99.99
2017-12-13T12:14:16.170Z,99.99
2017-12-13T12:15:29.690Z,99.99
2017-12-13T12:16:43.474Z,99.99
2017-12-13T12:17:57.344Z,99.99
2017-12-13T12:19:12.254Z,99.99
2017-12-13T12:20:26.490Z,99.99
2017-12-13T12:21:40.483Z,99.99
2017-12-13T12:22:54.465Z,99.99
2017-12-13T12:24:10.825Z,99.99
2017-12-13T12:25:24.678Z,99.99
2017-12-13T12:26:38.404Z,99.99
2017-12-13T12:27:52.229Z,99.99
2017-12-13T12:29:07.148Z,99.99
2017-12-13T12:30:23.299Z,99.99
2017-12-13T12:31:38.117Z,99.99
2017-12-13T12:32:54.761Z,99.99
2017-12-13T12:34:16.501Z,99.99
2017-12-13T12:36:00.430Z,99.99
2017-12-13T12:40:29.979Z,99.99
2017-12-13T12:42:32.734Z,99.99
2017-12-13T12:43:49.636Z,99.99
2017-12-13T12:45:05.282Z,99.99
2017-12-13T12:46:20.383Z,99.99
2017-12-13T12:47:36.128Z,99.99
2017-12-13T12:48:50.499Z,99.99
2017-12-13T12:50:05.136Z,99.99
2017-12-13T12:51:18.851Z,99.99
2017-12-13T12:52:33.475Z,99.99
2017-12-13T12:53:47.151Z,99.99
2017-12-13T12:55:00.965Z,99.99
2017-12-13T12:56:14.443Z,99.99
2017-12-13T12:57:30.783Z,99.99
2017-12-13T12:58:51.786Z,99.99
2017-12-13T13:00:06.576Z,99.99
2017-12-13T13:01:20.667Z,99.99
2017-12-13T13:02:34.566Z,99.99
2017-12-13T13:03:48.041Z,99.99
2017-12-13T13:05:02.073Z,99.99
2017-12-13T13:06:16.617Z,99.99
2017-12-13T13:07:30.937Z,99.99
2017-12-13T13:08:44.399Z,99.99
2017-12-13T13:09:57.998Z,99.99
2017-12-13T13:11:12.025Z,99.99
2017-12-13T13:12:25.488Z,99.99
2017-12-13T13:13:40.778Z,99.99
2017-12-13T13:14:54.882Z,99.99
2017-12-13T13:16:09.751Z,99.99
2017-12-13T13:17:25.271Z,99.99
2017-12-13T13:18:39.973Z,99.99
2017-12-13T13:19:53.489Z,99.99
2017-12-13T13:21:08.174Z,99.99
2017-12-13T13:22:21.806Z,99.99
2017-12-13T13:23:35.249Z,99.99
2017-12-13T13:24:49.340Z,99.99
2017-12-13T13:26:04.176Z,99.99
2017-12-13T13:27:17.678Z,99.99
2017-12-13T13:28:31.604Z,99.99
2017-12-13T13:29:47.141Z,99.99
2017-12-13T13:31:00.631Z,99.99
2017-12-13T13:32:14.735Z,99.99
2017-12-13T13:33:28.617Z,99.99
2017-12-13T13:34:42.343Z,99.99
2017-12-13T13:35:57.585Z,99.99
2017-12-13T13:37:14.597Z,99.99
2017-12-13T13:38:35.434Z,99.99
2017-12-13T13:39:49.207Z,99.99
2017-12-13T13:41:03.186Z,99.99
2017-12-13T13:42:17.039Z,99.99
2017-12-13T13:43:31.751Z,99.99
2017-12-13T13:44:47.196Z,99.99
2017-12-13T13:46:03.652Z,99.99
2017-12-13T13:47:21.163Z,99.99
2017-12-13T13:48:41.725Z,99.99
2017-12-13T13:50:01.868Z,99.99
2017-12-13T13:51:16.519Z,99.99
2017-12-13T13:52:31.763Z,99.99
2017-12-13T13:53:45.770Z,99.99
2017-12-13T13:54:59.767Z,99.99
2017-12-13T13:56:14.119Z,99.99
2017-12-13T13:57:28.850Z,99.99
2017-12-13T13:58:43.488Z,99.99
2017-12-13T13:59:56.951Z,99.99
2017-12-13T14:01:11.219Z,99.99
2017-12-13T14:02:26.561Z,99.99
2017-12-13T14:03:40.622Z,99.99
2017-12-13T14:04:55.705Z,99.99
2017-12-13T14:06:09.714Z,99.99
2017-12-13T14:07:23.466Z,99.99
2017-12-13T14:08:37.551Z,99.99
2017-12-13T14:09:51.029Z,99.99
2017-12-13T14:11:05.266Z,99.99
2017-12-13T14:12:19.974Z,99.99
2017-12-13T14:13:33.439Z,99.99
2017-12-13T14:14:47.617Z,99.99
2017-12-13T14:16:01.065Z,99.99
2017-12-13T14:17:15.078Z,99.99
2017-12-13T14:18:28.705Z,99.99
2017-12-13T14:19:42.513Z,99.99
2017-12-13T14:20:56.089Z,99.99
2017-12-13T14:22:10.360Z,99.99
2017-12-13T14:23:27.887Z,99.99
2017-12-13T14:24:45.823Z,99.99
2017-12-13T14:26:03.656Z,99.99
2017-12-13T14:27:19.201Z,99.99
2017-12-13T14:28:33.802Z,99.99
2017-12-13T14:29:48.453Z,99.99
2017-12-13T14:31:02.485Z,99.99
2017-12-13T14:32:16.555Z,99.99
2017-12-13T14:33:30.330Z,99.99
2017-12-13T14:34:44.900Z,99.99
2017-12-13T14:35:59.771Z,99.99
2017-12-13T14:37:14.809Z,99.99
2017-12-13T14:38:30.761Z,99.99
2017-12-13T14:39:45.242Z,99.99
2017-12-13T14:40:59.710Z,99.99
2017-12-13T14:42:13.938Z,99.99
2017-12-13T14:43:27.688Z,99.99
2017-12-13T14:44:41.651Z,99.99
2017-12-13T14:45:56.668Z,99.99
2017-12-13T14:47:10.181Z,99.99
2017-12-13T14:48:24.914Z,99.99
2017-12-13T14:49:39.073Z,99.99
2017-12-13T14:50:52.821Z,99.99
2017-12-13T14:52:08.084Z,99.99
2017-12-13T14:53:23.732Z,99.99
2017-12-13T14:54:42.030Z,99.99
2017-12-13T14:55:57.610Z,99.99
2017-12-13T14:57:31.616Z,99.99
2017-12-13T14:59:24.003Z,99.99
2017-12-13T15:00:40.351Z,99.99
2017-12-13T15:01:55.543Z,99.99
2017-12-13T15:03:10.827Z,99.99
2017-12-13T15:04:30.215Z,99.99
2017-12-13T15:05:45.786Z,99.99
2017-12-13T15:07:00.747Z,99.99
2017-12-13T15:08:15.811Z,99.99
2017-12-13T15:09:31.148Z,99.99
2017-12-13T15:10:48.770Z,99.99
2017-12-13T15:12:10.870Z,99.99
2017-12-13T15:13:28.039Z,99.99
2017-12-13T15:14:49.238Z,99.99
2017-12-13T15:16:12.066Z,99.99
2017-12-13T15:18:38.369Z,99.99
2017-12-13T15:23:37.415Z,99.99
2017-12-13T15:25:06.381Z,99.99
2017-12-13T15:26:28.150Z,99.99
2017-12-13T15:28:07.237Z,99.99
2017-12-13T15:32:35.312Z,99.99
2017-12-13T15:35:55.931Z,99.99
2017-12-13T15:37:27.829Z,99.99
2017-12-13T15:40:06.859Z,99.99
2017-12-13T15:41:25.526Z,99.99
2017-12-13T15:42:42.443Z,99.99
2017-12-13T15:43:56.166Z,99.99
2017-12-13T15:45:11.533Z,99.99
2017-12-13T15:46:29.056Z,99.99
2017-12-13T15:47:44.272Z,99.99
2017-12-13T15:48:59.562Z,99.99
2017-12-13T15:50:25.178Z,99.99
2017-12-13T15:51:39.897Z,99.99
2017-12-13T15:52:53.872Z,99.99
2017-12-13T15:54:07.644Z,99.99
2017-12-13T15:55:21.391Z,99.99
2017-12-13T15:56:36.602Z,99.99
2017-12-13T15:57:50.145Z,99.99
2017-12-13T15:59:05.687Z,99.99
2017-12-13T16:01:08.505Z,99.99
2017-12-13T16:02:52.652Z,99.99
2017-12-13T16:04:06.262Z,99.99
2017-12-13T16:05:20.696Z,99.99
2017-12-13T16:06:34.711Z,99.99
2017-12-13T16:07:52.142Z,99.99
2017-12-13T16:10:05.819Z,99.99
2017-12-13T16:14:05.673Z,99.99
2017-12-13T16:16:20.776Z,99.99
2017-12-13T16:17:42.237Z,99.99
2017-12-13T16:19:22.208Z,99.99
2017-12-13T16:20:38.966Z,99.99
2017-12-13T16:21:54.084Z,99.99
2017-12-13T16:23:07.679Z,99.99
2017-12-13T16:24:23.109Z,99.99
2017-12-13T16:25:38.164Z,99.99
2017-12-13T16:26:52.575Z,99.99
2017-12-13T16:28:07.113Z,99.99
2017-12-13T16:29:22.043Z,99.99
2017-12-13T16:30:37.311Z,99.99
2017-12-13T16:31:51.589Z,99.99
2017-12-13T16:33:06.233Z,99.99
2017-12-13T16:34:22.546Z,99.99